createdAt,value
2022-11-21T00:02:26.504Z,36.24
2022-11-21T00:04:54.834Z,36.30
2022-11-21T00:07:29.095Z,36.44
2022-11-21T00:09:57.406Z,36.21
2022-11-21T00:12:27.632Z,36.55
2022-11-21T00:14:55.930Z,36.73
2022-11-21T00:17:24.231Z,36.63
2022-11-21T00:19:52.907Z,36.81
2022-11-21T00:22:21.172Z,36.80
2022-11-21T00:24:54.143Z,37.08
2022-11-21T00:27:25.777Z,37.25
2022-11-21T00:29:54.036Z,37.29
2022-11-21T00:32:22.321Z,37.54
2022-11-21T00:34:53.641Z,37.77
2022-11-21T00:37:24.894Z,37.89
2022-11-21T00:39:53.154Z,38.01
2022-11-21T00:42:21.616Z,38.47
2022-11-21T00:44:54.538Z,38.51
2022-11-21T00:47:25.852Z,38.77
2022-11-21T00:49:54.131Z,39.08
2022-11-21T00:52:25.505Z,39.53
2022-11-21T00:54:53.917Z,39.93
2022-11-21T00:57:22.177Z,40.20
2022-11-21T00:59:50.475Z,40.47
2022-11-21T01:02:21.275Z,41.00
2022-11-21T01:04:49.665Z,41.30
2022-11-21T01:07:20.694Z,41.43
2022-11-21T01:09:56.896Z,41.58
2022-11-21T01:12:25.877Z,42.06
2022-11-21T01:14:54.203Z,42.40
2022-11-21T01:17:22.500Z,42.80
2022-11-21T01:19:51.460Z,42.56
2022-11-21T01:22:19.726Z,42.84
2022-11-21T01:24:56.751Z,43.48
2022-11-21T01:27:25.705Z,43.53
2022-11-21T01:29:55.773Z,43.33
2022-11-21T01:32:24.106Z,43.86
2022-11-21T01:34:52.431Z,44.01
2022-11-21T01:37:20.747Z,44.34
2022-11-21T01:39:51.965Z,44.08
2022-11-21T01:42:20.276Z,44.35
2022-11-21T01:44:51.987Z,44.49
2022-11-21T01:47:23.791Z,44.71
2022-11-21T01:49:54.224Z,44.81
2022-11-21T01:52:29.155Z,44.74
2022-11-21T01:55:09.061Z,44.87
2022-11-21T01:57:42.352Z,45.09
2022-11-21T02:00:15.258Z,45.52
2022-11-21T02:02:52.409Z,45.79
2022-11-21T02:05:27.312Z,45.65
2022-11-21T02:07:59.456Z,45.68
2022-11-21T02:10:31.170Z,45.82
2022-11-21T02:13:03.493Z,45.70
2022-11-21T02:15:31.890Z,46.00
2022-11-21T02:18:00.261Z,46.57
2022-11-21T02:20:34.597Z,46.29
2022-11-21T02:23:28.541Z,46.40
2022-11-21T02:25:57.055Z,46.63
2022-11-21T02:28:28.056Z,46.65
2022-11-21T02:30:56.592Z,46.91
2022-11-21T02:33:24.846Z,47.38
2022-11-21T02:36:05.247Z,47.43
2022-11-21T02:38:40.006Z,47.70
2022-11-21T02:41:27.380Z,47.85
2022-11-21T02:44:09.816Z,47.94
2022-11-21T02:46:47.111Z,48.01
2022-11-21T02:49:17.822Z,48.19
2022-11-21T02:51:46.066Z,48.09
2022-11-21T02:54:20.179Z,48.56
2022-11-21T02:56:48.513Z,48.45
2022-11-21T02:59:30.306Z,48.82
2022-11-21T03:02:01.966Z,48.45
2022-11-21T03:04:39.390Z,48.46
2022-11-21T03:07:07.677Z,48.94
2022-11-21T03:09:41.542Z,48.69
2022-11-21T03:12:16.887Z,49.04
2022-11-21T03:14:55.952Z,49.02
2022-11-21T03:17:24.361Z,49.16
2022-11-21T03:19:52.698Z,49.18
2022-11-21T03:22:21.652Z,49.23
2022-11-21T03:24:49.893Z,49.22
2022-11-21T03:27:18.161Z,49.17
2022-11-21T03:29:46.471Z,49.45
2022-11-21T03:32:17.667Z,49.42
2022-11-21T03:34:48.746Z,49.65
2022-11-21T03:37:17.905Z,49.63
2022-11-21T03:39:48.578Z,49.93
2022-11-21T03:42:20.775Z,50.09
2022-11-21T03:44:52.247Z,49.73
2022-11-21T03:47:34.915Z,50.08
2022-11-21T03:50:06.682Z,50.41
2022-11-21T03:52:37.861Z,50.47
2022-11-21T03:55:09.812Z,50.38
2022-11-21T03:57:45.301Z,50.26
2022-11-21T04:00:14.766Z,50.64
2022-11-21T04:02:46.773Z,50.60
2022-11-21T04:05:29.030Z,50.63
2022-11-21T04:07:59.541Z,50.66
2022-11-21T04:10:38.525Z,50.83
2022-11-21T04:13:15.410Z,51.11
2022-11-21T04:15:46.134Z,51.03
2022-11-21T04:18:15.460Z,51.04
2022-11-21T04:21:02.386Z,51.09
2022-11-21T04:23:33.490Z,51.19
2022-11-21T04:26:18.365Z,51.36
2022-11-21T04:28:49.507Z,51.43
2022-11-21T04:31:22.208Z,51.33
2022-11-21T04:33:56.205Z,51.33
2022-11-21T04:36:30.003Z,51.34
2022-11-21T04:39:05.645Z,51.31
2022-11-21T04:41:33.928Z,51.40
2022-11-21T04:44:02.309Z,51.46
2022-11-21T04:46:33.705Z,51.71
2022-11-21T04:49:11.040Z,51.69
2022-11-21T04:51:41.879Z,51.88
2022-11-21T04:54:18.820Z,51.93
2022-11-21T04:56:50.310Z,51.85
2022-11-21T04:59:27.022Z,52.08
2022-11-21T05:01:58.484Z,52.17
2022-11-21T05:04:27.452Z,52.00
2022-11-21T05:07:01.996Z,52.33
2022-11-21T05:09:33.088Z,52.41
2022-11-21T05:12:19.550Z,52.68
2022-11-21T05:14:53.845Z,52.59
2022-11-21T05:17:22.091Z,52.58
2022-11-21T05:19:52.348Z,52.62
2022-11-21T05:22:36.681Z,52.87
2022-11-21T05:25:25.047Z,53.09
2022-11-21T05:28:01.786Z,53.07
2022-11-21T05:30:30.118Z,52.91
2022-11-21T05:33:00.090Z,53.12
2022-11-21T05:35:28.386Z,53.43
2022-11-21T05:38:00.179Z,53.21
2022-11-21T05:40:30.498Z,53.36
2022-11-21T05:43:18.935Z,53.28
2022-11-21T05:45:49.701Z,53.55
2022-11-21T05:48:18.921Z,53.49
2022-11-21T05:50:56.622Z,53.31
2022-11-21T05:53:34.136Z,53.81
2022-11-21T05:56:13.047Z,54.11
2022-11-21T05:58:49.297Z,53.42
2022-11-21T06:01:40.741Z,54.08
2022-11-21T06:04:15.456Z,54.18
2022-11-21T06:06:45.700Z,54.68
2022-11-21T06:09:18.482Z,54.33
2022-11-21T06:11:52.153Z,54.42
2022-11-21T06:14:23.446Z,54.50
2022-11-21T06:16:54.741Z,54.37
2022-11-21T06:19:31.741Z,54.45
2022-11-21T06:22:00.058Z,54.60
2022-11-21T06:24:29.280Z,54.71
2022-11-21T06:27:05.541Z,54.30
2022-11-21T06:29:54.428Z,54.80
2022-11-21T06:32:23.047Z,55.06
2022-11-21T06:34:56.342Z,54.77
2022-11-21T06:37:24.687Z,55.06
2022-11-21T06:40:00.722Z,55.13
2022-11-21T06:42:33.342Z,55.34
2022-11-21T06:45:13.866Z,55.02
2022-11-21T06:47:42.190Z,54.94
2022-11-21T06:50:22.129Z,55.54
2022-11-21T06:52:50.591Z,55.91
2022-11-21T06:55:25.266Z,55.35
2022-11-21T06:57:57.866Z,55.64
2022-11-21T07:00:33.065Z,56.02
2022-11-21T07:03:06.042Z,55.80
2022-11-21T07:05:50.401Z,55.66
2022-11-21T07:08:24.588Z,55.68
2022-11-21T07:11:24.580Z,56.16
2022-11-21T07:14:09.090Z,55.81
2022-11-21T07:16:38.346Z,56.32
2022-11-21T07:19:08.841Z,56.27
2022-11-21T07:21:43.510Z,56.36
2022-11-21T07:27:09.221Z,56.26
2022-11-21T07:29:46.822Z,56.69
2022-11-21T07:32:27.247Z,56.10
2022-11-21T07:35:04.743Z,57.02
2022-11-21T07:37:42.676Z,56.09
2022-11-21T07:40:38.469Z,56.98
2022-11-21T07:43:12.586Z,56.99
2022-11-21T07:45:50.702Z,56.48
2022-11-21T07:48:26.339Z,56.68
2022-11-21T07:50:57.696Z,56.72
2022-11-21T07:53:32.385Z,57.15
2022-11-21T07:56:10.768Z,57.10
2022-11-21T07:58:44.481Z,57.56
2022-11-21T08:01:15.134Z,57.16
2022-11-21T08:03:45.736Z,56.94
2022-11-21T08:06:22.406Z,57.47
2022-11-21T08:08:57.365Z,57.82
2022-11-21T08:11:33.964Z,57.51
2022-11-21T08:14:10.093Z,57.21
2022-11-21T08:17:12.089Z,56.94
2022-11-21T08:19:44.349Z,57.71
2022-11-21T08:22:24.211Z,57.84
2022-11-21T08:24:59.452Z,57.59
2022-11-21T08:27:28.502Z,57.26
2022-11-21T08:30:06.792Z,57.69
2022-11-21T08:32:42.926Z,57.64
2022-11-21T08:35:23.472Z,58.31
2022-11-21T08:38:00.393Z,58.27
2022-11-21T08:40:39.422Z,57.58
2022-11-21T08:43:37.459Z,58.32
2022-11-21T08:46:09.003Z,57.79
2022-11-21T08:48:37.330Z,57.83
2022-11-21T08:51:14.824Z,58.06
2022-11-21T08:53:47.192Z,58.37
2022-11-21T08:56:22.387Z,58.45
2022-11-21T08:58:50.792Z,58.56
2022-11-21T09:01:26.894Z,58.69
2022-11-21T09:04:00.867Z,58.10
2022-11-21T09:06:42.024Z,58.50
2022-11-21T09:12:05.028Z,58.65
2022-11-21T09:14:59.989Z,58.62
2022-11-21T09:17:47.962Z,58.32
2022-11-21T09:20:19.797Z,59.26
2022-11-21T09:23:01.233Z,58.39
2022-11-21T09:25:37.401Z,58.67
2022-11-21T09:28:13.390Z,58.67
2022-11-21T09:30:50.726Z,58.68
2022-11-21T09:33:28.873Z,59.11
2022-11-21T09:39:17.617Z,58.55
2022-11-21T09:42:33.856Z,58.91
2022-11-21T09:45:30.428Z,59.39
2022-11-21T09:48:09.384Z,58.78
2022-11-21T09:50:55.730Z,59.10
2022-11-21T09:53:34.281Z,59.44
2022-11-21T09:56:24.577Z,58.93
2022-11-21T09:59:40.598Z,59.60
2022-11-21T10:05:30.223Z,59.39
2022-11-21T10:08:17.562Z,59.70
2022-11-21T10:11:35.906Z,58.85
2022-11-21T10:14:37.695Z,59.27
2022-11-21T10:20:46.650Z,59.01
2022-11-21T10:23:30.954Z,59.43
2022-11-21T10:26:28.766Z,59.23
2022-11-21T10:29:16.981Z,59.63
2022-11-21T10:31:54.828Z,59.57
2022-11-21T10:35:06.383Z,59.70
2022-11-21T10:37:57.458Z,59.29
2022-11-21T10:40:45.086Z,59.41
2022-11-21T10:43:47.626Z,60.16
2022-11-21T10:46:18.751Z,59.11
2022-11-21T10:49:19.507Z,59.58
2022-11-21T10:52:13.222Z,59.98
2022-11-21T10:55:18.128Z,59.50
2022-11-21T10:58:01.674Z,59.43
2022-11-21T11:00:47.586Z,60.10
2022-11-21T11:06:11.744Z,60.46
2022-11-21T11:09:42.066Z,60.15
2022-11-21T11:12:54.120Z,59.71
2022-11-21T11:16:08.086Z,60.14
2022-11-21T11:19:31.643Z,59.90
2022-11-21T11:22:28.659Z,60.37
2022-11-21T11:25:32.349Z,60.35
2022-11-21T11:28:33.890Z,60.61
2022-11-21T11:31:18.184Z,60.50
2022-11-21T11:34:14.037Z,60.77
2022-11-21T11:43:54.897Z,60.66
2022-11-21T11:47:15.780Z,60.54
2022-11-21T11:50:14.895Z,60.62
2022-11-21T11:53:28.022Z,60.46
2022-11-21T11:56:15.906Z,60.96
2022-11-21T11:59:05.627Z,60.87
2022-11-21T12:02:02.051Z,60.82
2022-11-21T12:04:55.500Z,60.30
2022-11-21T12:08:40.219Z,60.84
2022-11-21T12:11:24.892Z,61.63
2022-11-21T12:14:39.288Z,61.31
2022-11-21T12:17:32.696Z,61.68
2022-11-21T12:20:08.736Z,61.42
2022-11-21T12:22:47.070Z,61.37
2022-11-21T12:25:47.330Z,60.94
2022-11-21T12:28:57.541Z,61.29
2022-11-21T12:31:53.866Z,61.42
2022-11-21T12:38:31.579Z,61.81
2022-11-21T12:41:49.756Z,61.33
2022-11-21T12:45:13.852Z,61.36
2022-11-21T12:48:26.454Z,61.62
2022-11-21T12:51:54.105Z,61.58
2022-11-21T12:54:55.467Z,61.51
2022-11-21T12:58:08.041Z,61.60
2022-11-21T13:01:21.518Z,61.70
2022-11-21T13:05:01.206Z,61.65
2022-11-21T13:08:04.777Z,61.82
2022-11-21T13:11:08.695Z,61.83
2022-11-21T13:17:02.455Z,61.38
2022-11-21T13:20:17.991Z,61.60
2022-11-21T13:23:00.071Z,61.76
2022-11-21T13:26:02.967Z,61.76
2022-11-21T13:29:11.166Z,62.09
2022-11-21T13:32:04.018Z,62.16
2022-11-21T13:34:51.887Z,62.39
2022-11-21T13:38:22.593Z,62.26
2022-11-21T13:41:20.468Z,62.12
2022-11-21T13:44:42.480Z,62.17
2022-11-21T13:47:56.890Z,62.55
2022-11-21T13:50:40.116Z,62.36
2022-11-21T13:54:05.858Z,62.79
2022-11-21T13:58:14.476Z,62.48
2022-11-21T14:01:26.092Z,62.89
2022-11-21T14:04:43.273Z,62.27
2022-11-21T14:07:36.369Z,62.59
2022-11-21T14:10:33.627Z,62.98
2022-11-21T14:13:35.155Z,62.63
2022-11-21T14:17:12.028Z,63.05
2022-11-21T14:19:50.143Z,62.64
2022-11-21T14:23:21.003Z,62.93
2022-11-21T14:25:39.742Z,62.59
2022-11-21T14:28:32.070Z,62.83
2022-11-21T14:31:27.206Z,63.10
2022-11-21T14:34:19.513Z,62.85
2022-11-21T14:37:09.072Z,62.58
2022-11-21T14:40:25.713Z,62.80
2022-11-21T14:43:40.526Z,63.08
2022-11-21T14:45:55.302Z,62.79
2022-11-21T14:48:49.237Z,63.24
2022-11-21T14:55:27.973Z,63.01
2022-11-21T14:58:26.669Z,63.10
2022-11-21T15:02:02.085Z,63.14
2022-11-21T15:05:14.221Z,63.58
2022-11-21T15:08:17.119Z,62.89
2022-11-21T15:11:45.319Z,63.21
2022-11-21T15:14:34.354Z,63.61
2022-11-21T15:18:03.406Z,63.49
2022-11-21T15:20:33.786Z,63.13
2022-11-21T15:23:18.707Z,63.19
2022-11-21T15:26:06.836Z,62.95
2022-11-21T15:28:39.780Z,63.24
2022-11-21T15:31:31.591Z,63.32
2022-11-21T15:37:21.002Z,63.41
2022-11-21T15:43:11.598Z,63.62
2022-11-21T15:45:55.062Z,63.45
2022-11-21T15:48:33.387Z,63.79
2022-11-21T15:51:51.334Z,63.22
2022-11-21T15:54:50.070Z,63.17
2022-11-21T16:01:02.414Z,63.26
2022-11-21T16:03:47.945Z,63.13
2022-11-21T16:06:43.656Z,63.54
2022-11-21T16:09:48.028Z,63.49
2022-11-21T16:14:07.718Z,62.89
2022-11-21T16:16:05.803Z,62.74
2022-11-21T16:21:38.832Z,63.10
2022-11-21T16:24:39.252Z,62.59
2022-11-21T16:27:16.798Z,62.52
2022-11-21T16:30:27.175Z,61.50
2022-11-21T16:33:16.773Z,62.09
2022-11-21T16:36:07.306Z,61.18
2022-11-21T16:39:17.794Z,62.04
2022-11-21T16:41:49.981Z,61.57
2022-11-21T16:44:29.311Z,60.33
2022-11-21T16:47:16.906Z,61.31
2022-11-21T16:49:53.679Z,61.62
2022-11-21T16:53:18.282Z,61.09
2022-11-21T16:55:48.712Z,60.55
2022-11-21T16:58:47.263Z,60.66
2022-11-21T17:01:36.744Z,60.04
2022-11-21T17:04:17.659Z,60.42
2022-11-21T17:07:05.119Z,59.96
2022-11-21T17:10:04.771Z,59.82
2022-11-21T17:12:41.108Z,59.39
2022-11-21T17:15:18.967Z,59.62
2022-11-21T17:18:01.753Z,58.90
2022-11-21T17:20:37.536Z,59.02
2022-11-21T17:23:16.029Z,59.22
2022-11-21T17:26:12.695Z,58.48
2022-11-21T17:29:12.258Z,58.63
2022-11-21T17:31:54.989Z,58.88
2022-11-21T17:35:52.082Z,58.39
2022-11-21T17:37:39.066Z,58.29
2022-11-21T17:40:28.739Z,58.09
2022-11-21T17:43:19.251Z,57.80
2022-11-21T17:45:50.657Z,57.78
2022-11-21T17:48:30.556Z,57.25
2022-11-21T17:51:27.126Z,57.41
2022-11-21T17:54:14.059Z,56.73
2022-11-21T17:56:47.373Z,56.57
2022-11-21T18:02:07.605Z,56.25
2022-11-21T18:04:44.670Z,56.15
2022-11-21T18:07:17.839Z,56.11
2022-11-21T18:10:35.260Z,55.77
2022-11-21T18:13:01.231Z,55.50
2022-11-21T18:15:29.480Z,55.20
2022-11-21T18:18:00.781Z,54.88
2022-11-21T18:20:32.149Z,54.24
2022-11-21T18:23:04.675Z,54.43
2022-11-21T18:25:46.923Z,53.99
2022-11-21T18:28:29.617Z,53.93
2022-11-21T18:31:06.291Z,53.36
2022-11-21T18:33:55.252Z,52.97
2022-11-21T18:36:30.192Z,52.46
2022-11-21T18:39:07.330Z,52.04
2022-11-21T18:41:52.045Z,51.49
2022-11-21T18:44:22.512Z,51.16
2022-11-21T18:46:53.341Z,50.97
2022-11-21T18:49:29.445Z,51.12
2022-11-21T18:52:03.151Z,50.68
2022-11-21T18:54:31.432Z,50.53
2022-11-21T18:57:09.087Z,50.21
2022-11-21T18:59:51.268Z,50.27
2022-11-21T19:02:20.192Z,49.80
2022-11-21T19:04:57.266Z,50.10
2022-11-21T19:07:31.967Z,49.82
2022-11-21T19:10:40.907Z,49.16
2022-11-21T19:13:17.060Z,49.14
2022-11-21T19:15:45.501Z,48.41
2022-11-21T19:18:14.845Z,48.70
2022-11-21T19:20:46.041Z,48.34
2022-11-21T19:23:22.974Z,48.00
2022-11-21T19:25:55.242Z,48.14
2022-11-21T19:28:23.528Z,48.04
2022-11-21T19:30:56.922Z,47.58
2022-11-21T19:33:26.530Z,47.91
2022-11-21T19:35:56.596Z,47.62
2022-11-21T19:38:24.926Z,47.55
2022-11-21T19:41:13.362Z,47.10
2022-11-21T19:43:42.851Z,47.30
2022-11-21T19:46:16.259Z,46.96
2022-11-21T19:48:47.801Z,46.34
2022-11-21T19:51:21.467Z,46.34
2022-11-21T19:53:52.758Z,46.59
2022-11-21T19:56:28.257Z,46.52
2022-11-21T19:58:57.863Z,45.92
2022-11-21T20:01:31.225Z,45.70
2022-11-21T20:04:12.476Z,45.65
2022-11-21T20:06:43.946Z,45.74
2022-11-21T20:09:16.512Z,45.96
2022-11-21T20:11:58.376Z,45.93
2022-11-21T20:14:31.917Z,45.32
2022-11-21T20:17:02.512Z,45.17
2022-11-21T20:19:31.513Z,45.28
2022-11-21T20:22:00.028Z,44.84
2022-11-21T20:24:28.952Z,44.54
2022-11-21T20:26:57.546Z,44.74
2022-11-21T20:29:28.315Z,44.19
2022-11-21T20:32:02.666Z,44.23
2022-11-21T20:34:31.167Z,43.94
2022-11-21T20:37:01.706Z,43.53
2022-11-21T20:39:33.148Z,43.24
2022-11-21T20:42:07.021Z,43.34
2022-11-21T20:45:25.783Z,43.01
2022-11-21T20:47:28.269Z,43.22
2022-11-21T20:49:56.521Z,42.71
2022-11-21T20:55:23.036Z,42.08
2022-11-21T20:57:54.186Z,42.05
2022-11-21T21:00:22.500Z,41.80
2022-11-21T21:02:56.661Z,41.75
2022-11-21T21:05:29.703Z,41.59
2022-11-21T21:07:59.768Z,41.42
2022-11-21T21:10:37.304Z,41.17
2022-11-21T21:13:14.401Z,41.36
2022-11-21T21:15:42.687Z,40.73
2022-11-21T21:18:16.284Z,40.54
2022-11-21T21:21:14.922Z,40.26
2022-11-21T21:23:35.952Z,40.39
2022-11-21T21:26:19.266Z,40.12
2022-11-21T21:28:48.172Z,40.21
2022-11-21T21:31:21.703Z,39.82
2022-11-21T21:33:50.391Z,39.84
2022-11-21T21:36:25.016Z,39.70
2022-11-21T21:39:00.597Z,36.45
2022-11-21T21:41:31.686Z,38.97
2022-11-21T21:44:03.308Z,38.32
2022-11-21T21:46:34.325Z,38.66
2022-11-21T21:49:02.830Z,38.65
2022-11-21T21:51:32.342Z,38.57
2022-11-21T21:54:01.381Z,38.86
2022-11-21T21:56:33.532Z,38.87
2022-11-21T21:59:01.916Z,38.93
2022-11-21T22:01:32.601Z,38.65
2022-11-21T22:04:05.701Z,38.43
2022-11-21T22:06:37.085Z,38.38
2022-11-21T22:09:05.542Z,38.47
2022-11-21T22:11:41.377Z,37.86
2022-11-21T22:14:16.585Z,37.72
2022-11-21T22:16:48.420Z,37.82
2022-11-21T22:19:19.300Z,37.80
2022-11-21T22:21:51.307Z,36.69
2022-11-21T22:24:25.850Z,37.33
2022-11-21T22:26:55.887Z,37.21
2022-11-21T22:29:27.479Z,37.20
2022-11-21T22:31:55.809Z,36.95
2022-11-21T22:34:24.286Z,37.09
2022-11-21T22:36:53.176Z,36.40
2022-11-21T22:39:22.026Z,37.05
2022-11-21T22:41:50.412Z,37.03
2022-11-21T22:44:23.610Z,36.44
2022-11-21T22:46:51.936Z,36.39
2022-11-21T22:49:23.246Z,36.26
2022-11-21T22:51:56.797Z,36.02
2022-11-21T22:54:28.324Z,36.15
2022-11-21T22:57:05.670Z,35.68
2022-11-21T22:59:37.061Z,36.17
2022-11-21T23:02:07.685Z,36.15
2022-11-21T23:04:36.430Z,35.82
2022-11-21T23:07:06.757Z,36.13
2022-11-21T23:09:41.137Z,36.42
2022-11-21T23:12:11.931Z,36.42
2022-11-21T23:14:47.946Z,36.52
2022-11-21T23:17:17.243Z,36.55
2022-11-21T23:19:45.936Z,36.92
2022-11-21T23:22:17.456Z,36.91
2022-11-21T23:24:45.847Z,37.18
2022-11-21T23:27:20.471Z,37.24
2022-11-21T23:29:51.707Z,37.35
2022-11-21T23:32:23.041Z,37.45
2022-11-21T23:34:51.407Z,37.27
2022-11-21T23:37:21.635Z,37.63
2022-11-21T23:40:00.599Z,37.33
2022-11-21T23:42:33.669Z,37.06
2022-11-21T23:45:07.006Z,37.43
2022-11-21T23:47:35.316Z,37.49
2022-11-21T23:50:06.976Z,37.26
2022-11-21T23:52:39.145Z,37.39
2022-11-21T23:55:10.347Z,37.54
2022-11-21T23:57:41.995Z,37.58
